Time;durP1;ratioP1;P1;durP2;ratioP2;P2;SDS_P1;SDS_P2;PMS_P1;PMS_P2;Temp;Humidity;BMP_temperature;BMP_pressure;BME280_temperature;BME280_humidity;BME280_pressure;Samples;Min_cycle;Max_cycle;Signal;HPM_P1;HPM_P2
2023/07/23 00:02:17;;;;;;;7.07;5.37;;;19.30;91.90;;;;;;5035972;28;20274;-78
2023/07/23 00:04:43;;;;;;;5.90;5.27;;;19.30;91.80;;;;;;5035411;28;20590;-77
2023/07/23 00:07:08;;;;;;;6.27;5.23;;;19.30;91.90;;;;;;5037041;28;20196;-78
2023/07/23 00:09:34;;;;;;;8.07;4.83;;;19.30;92.10;;;;;;5030299;28;20221;-77
2023/07/23 00:12:00;;;;;;;5.40;4.90;;;19.30;92.30;;;;;;5036914;28;20235;-80
2023/07/23 00:14:26;;;;;;;6.27;5.00;;;19.30;93.00;;;;;;5026188;28;20219;-70
2023/07/23 00:16:52;;;;;;;6.43;5.30;;;19.20;93.00;;;;;;5025874;28;20202;-71
2023/07/23 00:19:19;;;;;;;6.03;4.63;;;19.20;91.90;;;;;;5026326;28;20210;-70
2023/07/23 00:21:48;;;;;;;6.03;5.53;;;19.20;92.40;;;;;;5032862;28;20213;-71
2023/07/23 00:24:14;;;;;;;5.57;4.77;;;19.20;92.60;;;;;;5007877;28;20207;-73
2023/07/23 00:26:40;;;;;;;6.13;4.57;;;19.20;93.00;;;;;;5018405;28;20207;-73
2023/07/23 00:29:06;;;;;;;5.57;5.03;;;19.20;92.20;;;;;;5033419;28;20259;-73
2023/07/23 00:31:31;;;;;;;7.80;4.47;;;19.20;92.40;;;;;;5034108;28;20204;-75
2023/07/23 00:33:57;;;;;;;5.90;5.20;;;19.20;92.10;;;;;;5031515;28;20218;-77
2023/07/23 00:36:22;;;;;;;4.90;4.03;;;19.10;92.50;;;;;;5036717;28;20205;-73
2023/07/23 00:38:48;;;;;;;6.43;5.83;;;19.20;92.50;;;;;;5036120;28;20247;-72
2023/07/23 00:41:14;;;;;;;6.67;4.77;;;19.20;92.30;;;;;;5031069;28;20211;-69
2023/07/23 00:43:39;;;;;;;6.63;5.33;;;19.10;92.60;;;;;;5034441;28;20302;-73
2023/07/23 00:46:05;;;;;;;5.80;5.23;;;19.10;92.90;;;;;;5033822;28;20294;-71
2023/07/23 00:48:30;;;;;;;4.97;4.33;;;19.20;92.50;;;;;;5034080;28;20207;-75
2023/07/23 00:50:56;;;;;;;6.10;5.50;;;19.10;92.90;;;;;;5035877;28;20655;-78
2023/07/23 00:53:23;;;;;;;5.43;4.87;;;19.10;92.70;;;;;;5036358;28;20226;-73
2023/07/23 00:55:49;;;;;;;5.57;5.07;;;19.10;92.80;;;;;;5036469;28;20198;-77
2023/07/23 00:58:15;;;;;;;8.80;5.50;;;19.10;92.50;;;;;;5013761;28;20294;-73
2023/07/23 01:00:40;;;;;;;5.83;5.23;;;19.10;92.70;;;;;;5036882;28;20287;-75
2023/07/23 01:03:06;;;;;;;6.03;5.50;;;19.10;92.80;;;;;;5017777;28;20203;-72
2023/07/23 01:05:33;;;;;;;5.80;5.20;;;19.00;93.40;;;;;;5032784;28;20754;-76
2023/07/23 01:07:59;;;;;;;5.87;5.13;;;19.00;93.10;;;;;;5032897;28;20222;-71
2023/07/23 01:10:25;;;;;;;4.60;4.20;;;18.90;93.40;;;;;;5029769;28;20290;-71
2023/07/23 01:12:51;;;;;;;5.30;4.77;;;18.90;93.40;;;;;;5032130;28;20567;-72
2023/07/23 01:15:17;;;;;;;7.23;5.50;;;18.90;93.70;;;;;;5034676;28;20203;-78
2023/07/23 01:17:44;;;;;;;5.83;5.27;;;18.90;93.40;;;;;;5019401;28;20293;-75
2023/07/23 01:20:09;;;;;;;5.23;4.63;;;18.90;93.40;;;;;;5028309;28;20681;-76
2023/07/23 01:22:36;;;;;;;8.13;5.30;;;18.90;93.70;;;;;;5005902;28;20199;-76
2023/07/23 01:25:04;;;;;;;5.87;5.20;;;18.90;94.50;;;;;;5027308;28;20201;-77
2023/07/23 01:27:30;;;;;;;5.50;4.23;;;18.90;94.40;;;;;;5033996;28;20667;-77
2023/07/23 01:29:55;;;;;;;6.30;5.37;;;18.90;93.70;;;;;;5037238;28;20202;-74
2023/07/23 01:32:21;;;;;;;5.40;4.73;;;18.90;93.90;;;;;;5037120;28;20661;-75
2023/07/23 01:34:47;;;;;;;4.90;4.50;;;18.90;94.00;;;;;;5034914;28;20215;-75
2023/07/23 01:37:13;;;;;;;6.90;4.27;;;18.90;93.90;;;;;;5036166;28;20967;-76
2023/07/23 01:39:39;;;;;;;6.67;4.67;;;18.80;94.40;;;;;;5032221;28;20193;-75
2023/07/23 01:42:09;;;;;;;7.03;5.50;;;18.70;94.80;;;;;;5037077;28;20607;-75
2023/07/23 01:44:35;;;;;;;5.30;4.80;;;18.80;94.80;;;;;;5029306;28;20214;-76
2023/07/23 01:47:00;;;;;;;6.43;4.90;;;18.80;95.30;;;;;;5036262;28;20599;-76
2023/07/23 01:49:26;;;;;;;5.53;5.03;;;18.70;96.10;;;;;;5031744;28;20569;-72
2023/07/23 01:51:51;;;;;;;11.97;5.07;;;18.40;98.40;;;;;;5036127;28;20261;-70
2023/07/23 01:54:17;;;;;;;5.87;5.13;;;18.10;99.90;;;;;;5035379;28;20643;-71
2023/07/23 01:56:42;;;;;;;5.33;4.83;;;18.10;99.90;;;;;;5035268;28;20196;-73
2023/07/23 01:59:08;;;;;;;7.90;5.43;;;18.20;99.90;;;;;;5035348;28;20701;-73
2023/07/23 02:01:34;;;;;;;5.67;5.07;;;17.90;99.90;;;;;;5033508;28;20210;-73
2023/07/23 02:04:00;;;;;;;6.53;4.30;;;17.90;99.90;;;;;;5028979;28;20942;-73
2023/07/23 02:06:25;;;;;;;4.80;4.40;;;18.00;99.90;;;;;;5039635;28;20352;-73
2023/07/23 02:08:51;;;;;;;5.93;5.43;;;17.70;99.90;;;;;;5038733;28;20210;-74
2023/07/23 02:11:16;;;;;;;6.33;5.50;;;17.80;99.90;;;;;;5037047;28;20287;-73
2023/07/23 02:13:41;;;;;;;5.90;5.30;;;17.70;99.90;;;;;;5034951;28;20577;-74
2023/07/23 02:16:15;;;;;;;6.67;5.50;;;17.80;99.90;;;;;;5039810;28;20527;-73
2023/07/23 02:18:41;;;;;;;5.57;5.03;;;17.80;99.90;;;;;;5031027;28;20196;-74
2023/07/23 02:21:06;;;;;;;8.37;5.43;;;17.90;99.90;;;;;;5037396;28;20558;-74
2023/07/23 02:23:32;;;;;;;10.50;5.20;;;17.90;99.90;;;;;;5003408;28;20233;-72
2023/07/23 02:25:57;;;;;;;5.73;5.10;;;17.90;99.90;;;;;;5039141;28;20206;-73
2023/07/23 02:28:23;;;;;;;5.20;4.70;;;17.90;99.90;;;;;;5035440;28;21039;-74
2023/07/23 02:31:15;;;;;;;6.10;5.00;;;17.80;99.90;;;;;;5039018;28;20315;-74
2023/07/23 02:33:41;;;;;;;5.97;5.37;;;17.90;99.90;;;;;;5028580;28;20226;-74
2023/07/23 02:36:06;;;;;;;7.17;5.40;;;17.60;99.90;;;;;;5039305;28;20550;-75
2023/07/23 02:38:32;;;;;;;7.67;5.20;;;17.70;99.90;;;;;;5037858;28;20190;-75
2023/07/23 02:40:59;;;;;;;7.57;6.13;;;17.80;99.90;;;;;;5032377;28;20573;-74
2023/07/23 02:43:24;;;;;;;5.97;5.37;;;17.80;99.90;;;;;;5038849;28;20210;-75
2023/07/23 02:45:51;;;;;;;6.73;5.07;;;17.90;99.90;;;;;;5038777;28;20207;-76
2023/07/23 02:48:16;;;;;;;6.77;6.00;;;17.90;99.90;;;;;;5032889;28;20213;-76
2023/07/23 02:50:42;;;;;;;7.13;6.43;;;17.80;99.90;;;;;;5037776;28;20223;-80
2023/07/23 02:53:07;;;;;;;6.57;5.97;;;17.80;99.90;;;;;;5038518;28;20209;-78
2023/07/23 02:55:33;;;;;;;7.23;5.57;;;17.80;99.90;;;;;;5036249;28;20195;-79
2023/07/23 02:58:00;;;;;;;7.13;5.70;;;17.80;99.90;;;;;;5039373;28;20205;-79
2023/07/23 03:00:28;;;;;;;7.10;6.23;;;17.80;99.90;;;;;;5033628;28;20215;-72
2023/07/23 03:02:54;;;;;;;6.27;5.67;;;17.80;99.90;;;;;;5031050;28;20226;-72
2023/07/23 03:05:19;;;;;;;6.50;5.80;;;17.80;99.90;;;;;;5033354;28;20207;-75
2023/07/23 03:07:45;;;;;;;6.83;6.13;;;17.80;99.90;;;;;;5038183;28;20818;-75
2023/07/23 03:10:11;;;;;;;6.20;5.70;;;17.80;99.90;;;;;;5033273;28;20203;-75
2023/07/23 03:12:36;;;;;;;7.57;5.93;;;17.80;99.90;;;;;;5038200;28;20215;-75
2023/07/23 03:15:02;;;;;;;6.50;5.90;;;17.70;99.90;;;;;;5031802;28;20612;-76
2023/07/23 03:17:28;;;;;;;8.43;6.23;;;17.70;99.90;;;;;;5036677;28;20203;-76
2023/07/23 03:19:53;;;;;;;7.77;6.60;;;17.50;99.90;;;;;;5031768;28;20188;-75
2023/07/23 03:22:19;;;;;;;8.17;6.30;;;17.50;99.90;;;;;;4997615;28;20419;-76
2023/07/23 03:24:45;;;;;;;6.90;6.27;;;17.50;99.90;;;;;;5038970;28;20226;-75
2023/07/23 03:27:11;;;;;;;6.67;6.07;;;17.50;99.90;;;;;;5011947;28;20219;-76
2023/07/23 03:29:36;;;;;;;6.87;5.87;;;17.60;99.90;;;;;;5037904;28;20202;-76
2023/07/23 03:32:02;;;;;;;6.83;6.23;;;17.70;99.90;;;;;;5033106;28;20738;-77
2023/07/23 03:34:28;;;;;;;6.77;6.07;;;17.70;99.90;;;;;;5032911;28;20215;-78
2023/07/23 03:36:53;;;;;;;7.97;6.80;;;17.70;99.90;;;;;;5033168;28;20606;-78
2023/07/23 03:39:19;;;;;;;10.60;6.60;;;17.70;99.90;;;;;;5037355;28;20722;-79
2023/07/23 03:41:46;;;;;;;8.33;7.07;;;17.70;99.90;;;;;;5036665;28;20190;-78
2023/07/23 03:44:11;;;;;;;12.30;6.63;;;17.70;99.90;;;;;;5032587;28;20249;-77
2023/07/23 03:46:45;;;;;;;7.00;6.30;;;17.70;99.90;;;;;;5037799;28;20250;-77
2023/07/23 03:49:11;;;;;;;7.43;6.70;;;17.70;99.90;;;;;;5037438;28;20608;-75
2023/07/23 03:51:36;;;;;;;7.57;6.77;;;17.70;99.90;;;;;;5026536;28;20334;-74
2023/07/23 03:54:02;;;;;;;8.10;7.00;;;17.80;99.90;;;;;;5029157;28;20283;-77
2023/07/23 03:56:27;;;;;;;9.50;7.47;;;17.70;99.90;;;;;;5036497;28;20290;-73
2023/07/23 03:58:53;;;;;;;10.10;7.23;;;17.60;99.90;;;;;;5037163;28;20218;-73
2023/07/23 04:01:18;;;;;;;7.47;6.63;;;17.50;99.90;;;;;;5036902;28;20692;-72
2023/07/23 04:03:44;;;;;;;8.33;7.53;;;17.50;99.90;;;;;;5034266;28;20321;-73
2023/07/23 04:06:09;;;;;;;7.33;6.70;;;17.50;99.90;;;;;;5035860;28;20199;-74
2023/07/23 04:08:35;;;;;;;9.27;7.50;;;17.40;99.90;;;;;;5037327;28;20736;-72
2023/07/23 04:11:00;;;;;;;8.73;7.03;;;17.20;99.90;;;;;;5037116;28;20206;-73
2023/07/23 04:13:26;;;;;;;9.20;7.33;;;17.20;99.90;;;;;;5036560;28;20217;-72
2023/07/23 04:15:51;;;;;;;10.17;7.20;;;17.20;99.90;;;;;;5036600;28;20195;-73
2023/07/23 04:18:18;;;;;;;8.43;7.57;;;17.20;99.90;;;;;;5035037;28;20547;-73
2023/07/23 04:20:44;;;;;;;7.57;6.87;;;17.10;99.90;;;;;;5036605;28;20568;-73
2023/07/23 04:23:09;;;;;;;7.43;6.63;;;17.20;99.90;;;;;;4999294;28;20906;-76
2023/07/23 04:25:35;;;;;;;8.57;6.87;;;17.30;99.90;;;;;;5031768;28;20202;-73
2023/07/23 04:28:00;;;;;;;8.43;7.43;;;17.40;99.90;;;;;;5036077;28;20199;-74
2023/07/23 04:30:27;;;;;;;9.83;7.07;;;17.40;99.90;;;;;;5025035;28;20244;-75
2023/07/23 04:32:53;;;;;;;8.40;7.60;;;17.40;99.90;;;;;;5026756;28;20203;-73
2023/07/23 04:35:20;;;;;;;9.80;7.87;;;17.40;99.90;;;;;;5036456;28;20732;-74
2023/07/23 04:37:46;;;;;;;10.20;8.30;;;17.40;99.90;;;;;;5032117;28;20723;-77
2023/07/23 04:40:11;;;;;;;8.50;7.40;;;17.40;99.90;;;;;;5032715;28;20701;-73
2023/07/23 04:42:37;;;;;;;10.00;7.83;;;17.40;99.90;;;;;;5031168;28;20199;-73
2023/07/23 04:45:03;;;;;;;7.27;6.57;;;17.40;99.90;;;;;;5029391;28;20678;-73
2023/07/23 04:47:28;;;;;;;8.20;7.40;;;17.40;99.90;;;;;;5032006;28;20204;-73
2023/07/23 04:49:54;;;;;;;7.43;6.70;;;17.30;99.90;;;;;;5036640;28;20596;-72
2023/07/23 04:52:19;;;;;;;7.87;7.07;;;17.40;99.90;;;;;;5035984;28;20250;-77
2023/07/23 04:54:45;;;;;;;7.93;7.20;;;17.40;99.90;;;;;;5031666;28;20246;-77
2023/07/23 04:57:10;;;;;;;9.80;7.70;;;17.30;99.90;;;;;;5029791;28;20252;-73
2023/07/23 04:59:36;;;;;;;8.77;7.47;;;17.40;99.90;;;;;;5031492;28;20203;-73
2023/07/23 05:02:02;;;;;;;9.60;7.00;;;17.30;99.90;;;;;;5034756;28;20206;-73
2023/07/23 05:04:28;;;;;;;7.93;7.23;;;17.30;99.90;;;;;;5027869;28;20215;-73
2023/07/23 05:06:53;;;;;;;7.37;6.67;;;17.20;99.90;;;;;;5036178;28;20636;-74
2023/07/23 05:09:19;;;;;;;8.67;7.70;;;17.20;99.90;;;;;;5028077;28;20293;-73
2023/07/23 05:11:44;;;;;;;7.90;7.10;;;17.30;99.90;;;;;;5029645;28;20207;-74
2023/07/23 05:14:10;;;;;;;8.97;8.10;;;17.20;99.90;;;;;;5032403;28;20207;-74
2023/07/23 05:16:35;;;;;;;8.23;7.43;;;17.20;99.90;;;;;;5029463;28;20246;-73
2023/07/23 05:19:00;;;;;;;8.53;7.70;;;17.30;99.90;;;;;;5035971;28;20273;-72
2023/07/23 05:21:26;;;;;;;9.43;8.13;;;17.30;99.90;;;;;;5033354;28;20249;-77
2023/07/23 05:23:51;;;;;;;8.57;7.77;;;17.30;99.90;;;;;;4980129;28;20198;-77
2023/07/23 05:26:17;;;;;;;9.77;8.77;;;17.20;99.90;;;;;;5025680;28;20673;-76
2023/07/23 05:28:42;;;;;;;8.83;7.93;;;17.20;99.90;;;;;;5031568;28;20726;-76
2023/07/23 05:31:08;;;;;;;10.87;7.77;;;17.30;99.90;;;;;;5031186;28;20202;-75
2023/07/23 05:40:38;;;;;;;8.93;7.77;;;17.60;99.90;;;;;;5037956;28;20205;-77
2023/07/23 05:43:12;;;;;;;8.33;7.53;;;17.60;99.90;;;;;;5035363;28;20194;-74
2023/07/23 05:45:38;;;;;;;8.40;7.60;;;17.60;99.90;;;;;;5039345;28;20206;-75
2023/07/23 05:48:03;;;;;;;8.17;7.37;;;17.60;99.90;;;;;;5032768;28;20285;-81
2023/07/23 05:50:29;;;;;;;8.57;7.77;;;17.60;99.90;;;;;;5031381;28;20709;-77
2023/07/23 05:52:55;;;;;;;7.93;7.23;;;17.70;99.90;;;;;;5036799;28;20841;-78
2023/07/23 05:55:20;;;;;;;10.47;8.73;;;17.70;99.90;;;;;;5039683;28;20211;-78
2023/07/23 05:57:46;;;;;;;9.30;7.97;;;17.60;99.90;;;;;;5038893;28;20700;-77
2023/07/23 06:00:11;;;;;;;9.80;7.40;;;17.60;99.90;;;;;;5037564;28;20696;-76
2023/07/23 06:02:37;;;;;;;8.03;6.90;;;17.60;99.90;;;;;;5031482;28;20665;-77
2023/07/23 06:05:03;;;;;;;9.40;7.20;;;17.70;99.90;;;;;;5032346;28;20206;-78
2023/07/23 06:07:28;;;;;;;10.77;7.47;;;17.70;99.90;;;;;;5039476;28;20534;-77
2023/07/23 06:09:54;;;;;;;7.67;6.97;;;17.80;99.90;;;;;;5038817;28;20685;-77
2023/07/23 06:12:19;;;;;;;8.20;7.40;;;17.80;99.90;;;;;;5039217;28;20212;-74
2023/07/23 06:14:45;;;;;;;8.77;7.67;;;18.00;99.90;;;;;;5029265;28;20718;-73
2023/07/23 06:17:11;;;;;;;8.93;7.30;;;18.00;99.90;;;;;;5039240;28;20213;-73
2023/07/23 06:19:37;;;;;;;9.93;7.87;;;18.10;99.90;;;;;;5038425;28;20681;-74
2023/07/23 06:22:06;;;;;;;7.63;6.53;;;18.20;99.90;;;;;;5016845;28;20195;-70
2023/07/23 06:24:32;;;;;;;9.37;6.73;;;18.30;99.90;;;;;;5025638;28;20211;-77
2023/07/23 06:26:57;;;;;;;6.53;5.67;;;18.30;99.90;;;;;;5038575;28;20199;-75
2023/07/23 06:29:24;;;;;;;8.27;5.90;;;18.30;99.90;;;;;;5039079;28;20834;-76
2023/07/23 06:31:50;;;;;;;5.97;5.40;;;18.40;99.90;;;;;;5039174;28;20654;-75
2023/07/23 06:34:15;;;;;;;6.93;5.93;;;18.50;99.90;;;;;;5030666;28;20211;-77
2023/07/23 06:36:41;;;;;;;6.63;6.00;;;18.50;99.90;;;;;;5034881;28;20201;-75
2023/07/23 06:39:06;;;;;;;7.63;5.80;;;18.60;99.90;;;;;;5030292;28;20197;-73
2023/07/23 06:41:32;;;;;;;6.57;5.90;;;18.60;99.90;;;;;;5035779;28;20285;-74
2023/07/23 06:43:57;;;;;;;7.43;6.33;;;18.70;99.90;;;;;;5039199;28;20207;-76
2023/07/23 06:46:23;;;;;;;6.63;5.93;;;18.80;99.90;;;;;;5039217;28;20203;-71
2023/07/23 06:48:49;;;;;;;6.60;5.87;;;18.90;99.90;;;;;;5036028;28;20238;-75
2023/07/23 06:51:14;;;;;;;7.53;5.40;;;19.00;99.90;;;;;;5038376;28;20703;-77
2023/07/23 06:53:40;;;;;;;6.23;5.63;;;19.00;99.90;;;;;;5034675;28;20227;-71
2023/07/23 06:56:08;;;;;;;7.63;5.07;;;19.10;99.90;;;;;;5038222;28;20349;-74
2023/07/23 06:58:36;;;;;;;5.07;4.67;;;19.10;99.90;;;;;;5039153;28;20194;-75
2023/07/23 07:01:01;;;;;;;5.97;5.37;;;19.10;99.90;;;;;;5018101;28;20659;-77
2023/07/23 07:03:27;;;;;;;5.83;5.17;;;19.20;99.90;;;;;;5034762;28;20213;-74
2023/07/23 07:12:37;;;;;;;9.13;6.20;;;19.70;99.90;;;;;;5035657;28;20282;-70
2023/07/23 07:15:03;;;;;;;6.03;5.53;;;19.70;99.90;;;;;;5033766;28;20939;-72
2023/07/23 07:17:29;;;;;;;6.33;5.50;;;19.70;99.90;;;;;;5038350;28;20194;-71
2023/07/23 07:19:54;;;;;;;7.43;5.60;;;19.80;99.90;;;;;;5037733;28;20195;-71
2023/07/23 07:22:20;;;;;;;5.77;5.13;;;19.80;99.90;;;;;;4992816;28;20752;-71
2023/07/23 07:24:47;;;;;;;8.10;5.17;;;19.90;99.90;;;;;;5037647;28;20214;-77
2023/07/23 07:27:14;;;;;;;6.50;5.50;;;20.00;99.90;;;;;;5038895;28;20244;-76
2023/07/23 07:29:41;;;;;;;6.10;5.50;;;20.00;99.90;;;;;;5015748;28;20217;-77
2023/07/23 07:32:07;;;;;;;6.17;5.67;;;20.10;99.90;;;;;;5037939;28;20274;-77
2023/07/23 07:34:33;;;;;;;6.17;5.57;;;20.10;99.90;;;;;;5033081;28;20223;-77
2023/07/23 07:36:58;;;;;;;5.23;4.73;;;20.10;99.90;;;;;;5031499;28;20201;-76
2023/07/23 07:39:24;;;;;;;5.63;5.07;;;20.20;99.90;;;;;;5014281;28;20196;-76
2023/07/23 07:41:49;;;;;;;5.87;5.37;;;20.20;99.90;;;;;;5035789;28;20278;-77
2023/07/23 07:44:15;;;;;;;8.40;6.10;;;20.20;99.90;;;;;;5037127;28;20859;-73
2023/07/23 07:46:40;;;;;;;5.40;4.90;;;20.20;99.90;;;;;;5037796;28;20200;-73
2023/07/23 07:49:06;;;;;;;5.70;5.20;;;20.30;99.90;;;;;;5030140;28;20613;-74
2023/07/23 07:51:31;;;;;;;5.77;5.07;;;20.20;99.90;;;;;;5030623;28;20232;-76
2023/07/23 07:53:57;;;;;;;8.23;7.43;;;20.40;99.90;;;;;;5038488;28;20316;-78
2023/07/23 07:56:23;;;;;;;6.60;5.20;;;20.40;99.90;;;;;;5033116;28;20202;-78
2023/07/23 07:58:49;;;;;;;5.53;4.87;;;20.50;99.90;;;;;;5037464;28;20204;-79
2023/07/23 08:01:14;;;;;;;6.93;5.17;;;20.50;99.90;;;;;;5032265;28;20195;-77
2023/07/23 08:03:40;;;;;;;7.17;5.40;;;20.50;99.90;;;;;;5033382;28;20205;-78
2023/07/23 08:06:06;;;;;;;7.10;5.33;;;20.40;99.90;;;;;;5035286;28;20209;-77
2023/07/23 08:08:34;;;;;;;8.03;6.70;;;20.50;99.90;;;;;;5034865;28;20232;-77
2023/07/23 08:11:01;;;;;;;7.10;5.50;;;20.50;99.90;;;;;;5037693;28;20196;-78
2023/07/23 08:13:27;;;;;;;5.50;4.90;;;20.60;99.90;;;;;;5037606;28;20215;-78
2023/07/23 08:15:54;;;;;;;6.83;5.07;;;20.50;99.90;;;;;;5032503;28;20752;-77
2023/07/23 08:18:20;;;;;;;5.60;5.07;;;20.60;99.90;;;;;;5030978;28;20226;-76
2023/07/23 08:20:46;;;;;;;4.47;4.07;;;20.70;99.90;;;;;;5032058;28;20286;-76
2023/07/23 08:23:12;;;;;;;5.03;4.63;;;20.60;99.90;;;;;;4979895;28;20289;-77
2023/07/23 08:25:38;;;;;;;5.03;4.63;;;20.70;99.90;;;;;;5038302;28;20693;-75
2023/07/23 08:28:06;;;;;;;5.57;5.03;;;20.70;99.90;;;;;;5037441;28;20607;-76
2023/07/23 08:30:32;;;;;;;5.67;5.17;;;20.80;99.90;;;;;;5032312;28;20214;-76
2023/07/23 08:32:59;;;;;;;7.67;5.77;;;20.90;99.90;;;;;;5031836;28;20200;-77
2023/07/23 08:35:27;;;;;;;4.47;4.07;;;20.90;99.90;;;;;;5031959;28;20206;-77
2023/07/23 08:37:52;;;;;;;4.83;4.20;;;21.00;99.90;;;;;;5035916;28;20603;-72
2023/07/23 08:40:19;;;;;;;6.97;4.77;;;21.00;99.90;;;;;;5033784;28;20237;-76
2023/07/23 08:43:00;;;;;;;6.70;5.50;;;21.10;99.90;;;;;;5032522;28;20295;-76
2023/07/23 08:45:48;;;;;;;5.97;4.57;;;21.10;99.90;;;;;;5036862;28;20272;-71
2023/07/23 08:48:18;;;;;;;4.73;4.30;;;21.10;99.90;;;;;;5036623;28;20206;-70
2023/07/23 08:50:45;;;;;;;8.03;4.63;;;21.20;99.90;;;;;;5029899;28;20256;-76
2023/07/23 08:53:12;;;;;;;6.00;4.83;;;21.30;99.90;;;;;;5029190;28;20330;-75
2023/07/23 08:55:41;;;;;;;5.13;4.63;;;21.30;99.90;;;;;;5036975;28;20261;-75
2023/07/23 08:58:07;;;;;;;4.83;4.40;;;21.30;99.90;;;;;;5036590;28;20748;-75
2023/07/23 09:00:34;;;;;;;6.17;4.80;;;21.40;99.90;;;;;;5034874;28;20205;-66
2023/07/23 09:03:03;;;;;;;5.37;4.33;;;21.50;99.90;;;;;;5030204;28;20213;-80
2023/07/23 09:05:29;;;;;;;6.70;4.10;;;21.60;99.90;;;;;;5033021;28;20210;-80
2023/07/23 09:07:55;;;;;;;5.73;4.57;;;21.70;99.60;;;;;;5034735;28;20206;-73
2023/07/23 09:10:20;;;;;;;5.23;4.13;;;21.70;99.90;;;;;;5037146;28;20649;-77
2023/07/23 09:12:46;;;;;;;6.70;5.00;;;21.70;99.90;;;;;;5033443;28;20303;-73
2023/07/23 09:15:13;;;;;;;5.73;4.57;;;21.90;99.90;;;;;;5031716;28;20225;-77
2023/07/23 09:17:39;;;;;;;5.40;4.47;;;22.00;99.00;;;;;;5036177;28;20214;-74
2023/07/23 09:20:09;;;;;;;4.37;3.97;;;22.20;98.40;;;;;;5033428;28;20205;-77
2023/07/23 09:22:37;;;;;;;4.87;4.13;;;22.20;99.90;;;;;;5021867;28;20202;-75
2023/07/23 09:25:03;;;;;;;5.60;4.47;;;22.30;99.50;;;;;;5037190;28;20241;-76
2023/07/23 09:27:36;;;;;;;6.00;4.00;;;22.40;98.60;;;;;;5033461;28;20194;-74
2023/07/23 09:30:02;;;;;;;5.23;4.40;;;22.40;98.00;;;;;;5033883;28;20301;-75
2023/07/23 09:32:27;;;;;;;4.90;4.40;;;22.60;97.30;;;;;;5033208;28;20205;-75
2023/07/23 09:34:55;;;;;;;4.80;4.33;;;22.60;97.10;;;;;;5031147;28;20252;-77
2023/07/23 09:37:21;;;;;;;4.57;4.10;;;22.50;97.60;;;;;;5036138;28;20246;-75
2023/07/23 09:39:46;;;;;;;4.70;4.20;;;22.60;97.50;;;;;;5035340;28;20285;-76
2023/07/23 09:42:12;;;;;;;4.03;3.70;;;22.50;96.90;;;;;;5033487;28;20995;-77
2023/07/23 09:44:42;;;;;;;4.47;4.07;;;22.60;96.50;;;;;;5032581;28;20248;-73
2023/07/23 09:47:08;;;;;;;4.93;4.50;;;22.60;95.70;;;;;;5033992;28;20708;-77
2023/07/23 09:49:33;;;;;;;4.30;3.90;;;22.70;95.80;;;;;;5033978;28;20684;-66
2023/07/23 09:52:06;;;;;;;5.53;4.37;;;22.80;96.80;;;;;;5014186;28;20239;-70
2023/07/23 09:54:33;;;;;;;4.67;4.13;;;23.00;94.20;;;;;;5032984;28;20255;-74
2023/07/23 09:57:03;;;;;;;6.63;4.77;;;23.00;93.60;;;;;;5032989;28;20202;-75
2023/07/23 09:59:29;;;;;;;4.77;4.20;;;23.10;93.40;;;;;;5026500;28;20209;-76
2023/07/23 10:01:56;;;;;;;3.97;3.60;;;23.10;93.60;;;;;;5032374;28;20632;-74
2023/07/23 10:04:23;;;;;;;6.37;3.90;;;23.20;92.70;;;;;;5029009;28;20702;-74
2023/07/23 10:06:49;;;;;;;8.57;4.20;;;23.20;93.30;;;;;;5036007;28;20206;-74
2023/07/23 10:09:20;;;;;;;4.83;4.33;;;23.20;93.60;;;;;;5034486;28;20745;-74
2023/07/23 10:11:45;;;;;;;4.80;4.35;;;23.40;94.50;;;;;;5036109;28;20690;-73
2023/07/23 10:14:11;;;;;;;4.33;3.97;;;23.60;92.20;;;;;;5032605;28;20214;-68
2023/07/23 10:16:39;;;;;;;4.67;4.20;;;23.70;92.70;;;;;;5028742;28;20207;-68
2023/07/23 10:19:05;;;;;;;5.22;4.38;;;23.70;92.10;;;;;;5031225;28;20278;-70
2023/07/23 10:21:33;;;;;;;4.90;4.27;;;23.80;93.70;;;;;;5028748;28;20655;-69
2023/07/23 10:24:00;;;;;;;5.53;4.57;;;23.80;90.70;;;;;;5006125;28;20203;-67
2023/07/23 10:26:30;;;;;;;5.78;4.03;;;23.90;90.80;;;;;;5029917;28;20206;-69
2023/07/23 10:29:07;;;;;;;6.47;4.35;;;24.00;90.20;;;;;;5034829;28;20199;-69
2023/07/23 10:31:33;;;;;;;5.55;4.53;;;24.00;90.90;;;;;;5034148;28;20205;-70
2023/07/23 10:33:59;;;;;;;9.30;4.63;;;24.00;90.40;;;;;;5035403;28;20222;-72
2023/07/23 10:36:25;;;;;;;4.20;3.80;;;24.00;91.30;;;;;;5033063;28;20568;-74
2023/07/23 10:39:16;;;;;;;5.33;4.20;;;24.00;91.10;;;;;;5034944;28;20586;-72
2023/07/23 10:41:53;;;;;;;5.57;4.97;;;24.10;90.70;;;;;;5034017;28;20202;-81
2023/07/23 10:44:28;;;;;;;4.43;3.95;;;24.20;90.70;;;;;;5039396;28;20219;-64
2023/07/23 10:46:57;;;;;;;4.22;3.83;;;24.40;90.20;;;;;;5031756;28;20477;-79
2023/07/23 10:49:27;;;;;;;6.00;3.72;;;24.50;88.80;;;;;;5035049;28;20613;-80
2023/07/23 10:51:53;;;;;;;4.00;3.70;;;24.50;88.90;;;;;;5038688;28;20242;-78
2023/07/23 10:54:20;;;;;;;3.85;3.55;;;24.60;87.90;;;;;;5038152;28;20210;-79
2023/07/23 10:56:48;;;;;;;9.65;4.28;;;24.50;88.90;;;;;;5039086;28;20222;-79
2023/07/23 10:59:16;;;;;;;5.00;4.22;;;24.60;88.60;;;;;;5034657;28;20261;-79
2023/07/23 11:01:43;;;;;;;6.03;4.03;;;24.60;87.50;;;;;;5034712;28;20202;-81
2023/07/23 11:04:14;;;;;;;4.53;4.13;;;24.60;86.60;;;;;;5034737;28;20265;-80
2023/07/23 11:07:01;;;;;;;4.20;3.75;;;24.60;87.00;;;;;;5032826;28;20231;-80
2023/07/23 11:09:30;;;;;;;4.90;4.50;;;24.50;87.60;;;;;;5036646;28;20206;-77
2023/07/23 11:11:57;;;;;;;4.95;4.55;;;24.70;87.30;;;;;;5038977;28;20202;-79
2023/07/23 11:14:23;;;;;;;4.65;4.22;;;24.70;87.60;;;;;;5034354;28;20220;-79
2023/07/23 11:16:50;;;;;;;4.68;4.15;;;24.80;88.50;;;;;;5038614;28;20206;-79
2023/07/23 11:19:18;;;;;;;4.75;4.28;;;25.00;87.30;;;;;;5038808;28;20212;-78
2023/07/23 11:22:04;;;;;;;4.72;4.30;;;25.30;85.30;;;;;;5031908;28;20196;-67
2023/07/23 11:24:31;;;;;;;5.53;4.40;;;25.30;86.20;;;;;;5041061;28;20200;-80
2023/07/23 11:26:59;;;;;;;4.75;4.28;;;25.50;85.30;;;;;;5037128;28;20609;-79
2023/07/23 11:29:25;;;;;;;3.75;3.45;;;25.60;87.80;;;;;;5034734;28;20207;-79
2023/07/23 11:31:52;;;;;;;5.20;4.00;;;25.60;85.60;;;;;;5038455;28;20694;-79
2023/07/23 11:34:18;;;;;;;4.28;3.88;;;25.60;87.30;;;;;;5038228;28;20261;-79
2023/07/23 11:36:44;;;;;;;4.40;4.00;;;25.80;86.00;;;;;;5036186;28;20366;-78
2023/07/23 11:39:10;;;;;;;7.10;4.50;;;26.20;82.40;;;;;;5036885;28;20191;-80
2023/07/23 11:41:41;;;;;;;12.07;4.60;;;26.30;80.80;;;;;;5033085;28;20198;-80
2023/07/23 11:44:08;;;;;;;4.35;3.50;;;26.20;83.00;;;;;;5031653;28;20209;-80
2023/07/23 11:46:37;;;;;;;5.45;4.15;;;26.30;79.70;;;;;;5035345;28;20697;-79
2023/07/23 11:49:06;;;;;;;5.20;4.80;;;26.40;80.10;;;;;;5032058;28;20204;-79
2023/07/23 11:51:32;;;;;;;4.38;3.97;;;26.40;79.50;;;;;;5037815;28;20342;-78
2023/07/23 11:54:05;;;;;;;4.88;3.85;;;26.60;78.60;;;;;;5037575;28;20212;-79
2023/07/23 11:56:38;;;;;;;4.65;3.85;;;26.70;77.60;;;;;;5036370;28;20192;-77
2023/07/23 11:59:05;;;;;;;4.50;3.20;;;26.90;78.80;;;;;;5033577;28;20297;-78
2023/07/23 12:01:31;;;;;;;3.05;2.85;;;27.20;71.20;;;;;;5038038;28;20202;-80
2023/07/23 12:04:00;;;;;;;4.18;3.17;;;27.00;70.90;;;;;;5037178;28;20196;-80
2023/07/23 12:06:29;;;;;;;3.65;3.28;;;27.00;69.30;;;;;;5038716;28;21004;-78
2023/07/23 12:08:55;;;;;;;5.53;3.83;;;27.00;69.30;;;;;;5038790;28;20741;-78
2023/07/23 12:11:23;;;;;;;4.13;3.70;;;26.80;69.90;;;;;;5038057;28;20213;-80
2023/07/23 12:13:54;;;;;;;3.63;3.33;;;26.80;69.20;;;;;;5031018;28;20262;-78
2023/07/23 12:16:43;;;;;;;3.50;3.20;;;26.90;69.30;;;;;;5038239;28;20256;-78
2023/07/23 12:19:13;;;;;;;4.07;3.70;;;26.90;69.30;;;;;;5033487;28;20192;-79
2023/07/23 12:21:43;;;;;;;4.18;3.50;;;26.60;70.30;;;;;;4999030;28;20201;-67
2023/07/23 12:24:23;;;;;;;3.92;3.60;;;26.70;69.90;;;;;;5037762;28;20253;-82
2023/07/23 12:26:53;;;;;;;3.92;3.63;;;26.90;69.00;;;;;;5037964;28;20242;-81
2023/07/23 12:29:21;;;;;;;3.83;3.45;;;26.90;69.00;;;;;;5037845;28;20198;-81
2023/07/23 12:31:48;;;;;;;5.93;3.17;;;27.20;67.30;;;;;;5037945;28;20239;-81
2023/07/23 12:34:15;;;;;;;3.67;3.38;;;27.20;68.10;;;;;;5031035;28;20296;-80
2023/07/23 12:36:42;;;;;;;3.90;3.13;;;26.90;68.50;;;;;;5038234;28;20200;-81
2023/07/23 12:39:09;;;;;;;4.63;3.28;;;26.80;67.60;;;;;;5037950;28;20768;-80
2023/07/23 12:41:37;;;;;;;4.88;3.13;;;26.70;64.70;;;;;;5038055;28;20227;-80
2023/07/23 12:44:04;;;;;;;3.15;2.65;;;26.70;65.10;;;;;;5035876;28;20247;-80
2023/07/23 12:46:30;;;;;;;21.58;3.50;;;26.70;62.70;;;;;;5019700;28;20195;-80
2023/07/23 12:48:55;;;;;;;3.53;2.90;;;26.60;62.50;;;;;;5037441;28;20224;-80
2023/07/23 12:51:22;;;;;;;2.92;2.72;;;26.70;61.30;;;;;;5020188;28;20338;-79
2023/07/23 12:53:48;;;;;;;3.17;2.67;;;26.60;61.60;;;;;;5037680;28;20873;-80
2023/07/23 12:56:14;;;;;;;3.50;3.20;;;26.60;61.10;;;;;;5035438;28;20190;-81
2023/07/23 12:58:40;;;;;;;2.95;2.70;;;26.70;62.50;;;;;;5037249;28;20211;-80